createdAt,value
2022-10-07T00:01:06.987Z,19.42
2022-10-07T00:03:36.023Z,24.40
2022-10-07T00:06:06.071Z,21.15
2022-10-07T00:08:35.756Z,20.02
2022-10-07T00:11:16.238Z,22.30
2022-10-07T00:13:45.740Z,19.13
2022-10-07T00:16:16.032Z,19.83
2022-10-07T00:18:44.825Z,21.65
2022-10-07T00:21:14.937Z,20.38
2022-10-07T00:23:44.407Z,23.77
2022-10-07T00:26:16.537Z,24.33
2022-10-07T00:28:44.996Z,23.50
2022-10-07T00:31:16.483Z,19.52
2022-10-07T00:33:45.214Z,22.25
2022-10-07T00:36:15.717Z,21.70
2022-10-07T00:38:43.689Z,23.20
2022-10-07T00:41:18.902Z,18.38
2022-10-07T00:44:42.532Z,17.63
2022-10-07T00:49:47.354Z,19.95
2022-10-07T00:52:17.413Z,21.13
2022-10-07T00:54:45.478Z,18.98
2022-10-07T00:57:15.048Z,23.48
2022-10-07T00:59:43.023Z,21.13
2022-10-07T01:02:11.040Z,20.90
2022-10-07T01:04:40.423Z,23.38
2022-10-07T01:07:08.454Z,18.02
2022-10-07T01:09:36.671Z,15.77
2022-10-07T01:12:12.879Z,21.20
2022-10-07T01:14:54.848Z,17.05
2022-10-07T01:17:26.862Z,20.48
2022-10-07T01:20:17.260Z,19.70
2022-10-07T01:22:56.792Z,16.42
2022-10-07T01:25:33.392Z,17.23
2022-10-07T01:28:08.134Z,16.85
2022-10-07T01:30:41.334Z,20.27
2022-10-07T01:33:15.077Z,16.70
2022-10-07T01:35:46.413Z,16.83
2022-10-07T01:38:17.701Z,17.27
2022-10-07T01:40:51.522Z,21.27
2022-10-07T01:43:23.143Z,18.85
2022-10-07T01:45:53.211Z,18.25
2022-10-07T01:48:21.202Z,17.33
2022-10-07T01:50:50.570Z,16.92
2022-10-07T01:53:33.225Z,22.60
2022-10-07T01:56:18.604Z,23.45
2022-10-07T01:59:07.057Z,17.50
2022-10-07T02:01:44.001Z,17.17
2022-10-07T02:04:33.800Z,20.33
2022-10-07T02:07:10.316Z,20.67
2022-10-07T02:09:42.421Z,18.73
2022-10-07T02:12:15.306Z,17.83
2022-10-07T02:14:51.480Z,18.40
2022-10-07T02:17:21.723Z,20.27
2022-10-07T02:19:54.339Z,16.65
2022-10-07T02:22:25.910Z,19.42
2022-10-07T02:24:58.905Z,16.10
2022-10-07T02:27:30.116Z,17.10
2022-10-07T02:30:03.636Z,15.60
2022-10-07T02:32:32.944Z,14.90
2022-10-07T02:35:06.321Z,17.05
2022-10-07T02:37:37.834Z,15.32
2022-10-07T02:40:12.258Z,14.30
2022-10-07T02:42:48.317Z,14.20
2022-10-07T02:45:26.481Z,14.00
2022-10-07T02:48:00.788Z,16.83
2022-10-07T02:50:35.428Z,15.48
2022-10-07T02:53:04.344Z,15.80
2022-10-07T02:55:34.912Z,15.60
2022-10-07T02:58:06.377Z,15.13
2022-10-07T03:00:40.342Z,19.65
2022-10-07T03:03:08.330Z,12.95
2022-10-07T03:05:36.737Z,16.85
2022-10-07T03:08:07.528Z,15.00
2022-10-07T03:10:35.681Z,14.23
2022-10-07T03:13:04.973Z,11.57
2022-10-07T03:15:39.777Z,13.45
2022-10-07T03:18:26.426Z,10.45
2022-10-07T03:20:55.446Z,13.95
2022-10-07T03:23:23.978Z,12.27
2022-10-07T03:25:53.491Z,12.82
2022-10-07T03:28:22.292Z,12.70
2022-10-07T03:30:50.838Z,13.05
2022-10-07T03:33:24.962Z,10.18
2022-10-07T03:35:53.947Z,13.07
2022-10-07T03:38:22.604Z,13.13
2022-10-07T03:40:50.520Z,14.35
2022-10-07T03:43:18.461Z,14.68
2022-10-07T03:45:51.179Z,11.27
2022-10-07T03:50:52.210Z,10.38
2022-10-07T03:53:20.604Z,10.45
2022-10-07T03:55:48.592Z,8.80
2022-10-07T03:58:16.689Z,11.05
2022-10-07T04:00:44.638Z,9.20
2022-10-07T04:03:12.649Z,5.95
2022-10-07T04:05:43.396Z,4.25
2022-10-07T04:08:15.756Z,15.95
2022-10-07T04:10:43.685Z,9.77
2022-10-07T04:13:11.579Z,5.85
2022-10-07T04:15:40.369Z,12.25
2022-10-07T04:18:08.349Z,11.90
2022-10-07T04:20:38.744Z,11.88
2022-10-07T04:23:08.248Z,6.95
2022-10-07T04:25:37.570Z,11.43
2022-10-07T04:28:07.492Z,6.00
2022-10-07T04:30:40.645Z,5.53
2022-10-07T04:33:08.751Z,5.03
2022-10-07T04:35:38.604Z,5.18
2022-10-07T04:38:10.007Z,5.85
2022-10-07T04:40:40.957Z,4.85
2022-10-07T04:43:23.290Z,4.65
2022-10-07T04:45:54.412Z,4.82
2022-10-07T04:48:24.327Z,4.68
2022-10-07T04:50:52.946Z,4.70
2022-10-07T04:53:22.314Z,6.13
2022-10-07T04:55:52.036Z,4.90
2022-10-07T04:58:20.790Z,6.57
2022-10-07T05:00:50.673Z,5.35
2022-10-07T05:03:20.272Z,5.72
2022-10-07T05:05:50.168Z,5.88
2022-10-07T05:08:20.185Z,7.40
2022-10-07T05:10:49.510Z,8.52
2022-10-07T05:13:17.994Z,9.30
2022-10-07T05:15:50.063Z,9.43
2022-10-07T05:18:19.124Z,12.48
2022-10-07T05:20:47.580Z,12.60
2022-10-07T05:23:16.409Z,26.92
2022-10-07T05:25:47.728Z,19.77
2022-10-07T05:28:18.699Z,21.15
2022-10-07T05:30:46.613Z,23.52
2022-10-07T05:33:14.572Z,25.77
2022-10-07T05:35:47.194Z,20.83
2022-10-07T05:40:42.975Z,20.42
2022-10-07T05:43:11.436Z,27.77
2022-10-07T05:45:41.032Z,23.88
2022-10-07T05:48:09.199Z,24.63
2022-10-07T05:50:37.074Z,28.83
2022-10-07T05:53:05.126Z,28.58
2022-10-07T05:55:38.049Z,31.08
2022-10-07T05:58:08.046Z,37.08
2022-10-07T06:00:41.744Z,34.85
2022-10-07T06:03:11.528Z,33.47
2022-10-07T06:05:39.617Z,31.65
2022-10-07T06:08:07.539Z,29.50
2022-10-07T06:10:53.264Z,34.22
2022-10-07T06:13:21.273Z,36.55
2022-10-07T06:15:49.191Z,46.53
2022-10-07T06:18:18.552Z,32.30
2022-10-07T06:20:54.622Z,35.83
2022-10-07T06:23:22.697Z,35.15
2022-10-07T06:25:56.277Z,39.58
2022-10-07T06:28:24.784Z,37.00
2022-10-07T06:30:53.224Z,43.63
2022-10-07T06:33:22.623Z,30.70
2022-10-07T06:35:50.559Z,37.70
2022-10-07T06:38:18.749Z,49.00
2022-10-07T06:40:58.836Z,43.22
2022-10-07T06:43:27.295Z,44.58
2022-10-07T06:45:58.841Z,49.45
2022-10-07T06:48:28.466Z,46.58
2022-10-07T06:50:58.588Z,36.60
2022-10-07T06:53:27.579Z,37.65
2022-10-07T06:55:57.801Z,44.15
2022-10-07T06:58:26.352Z,38.45
2022-10-07T07:00:54.878Z,38.92
2022-10-07T07:03:22.977Z,32.53
2022-10-07T07:05:54.905Z,36.65
2022-10-07T07:08:27.764Z,37.78
2022-10-07T07:13:24.807Z,33.13
2022-10-07T07:15:56.887Z,28.92
2022-10-07T07:18:25.657Z,30.48
2022-10-07T07:20:55.317Z,28.50
2022-10-07T07:23:23.747Z,26.88
2022-10-07T07:25:51.648Z,28.70
2022-10-07T07:28:19.917Z,25.65
2022-10-07T07:30:49.160Z,32.95
2022-10-07T07:33:17.153Z,25.73
2022-10-07T07:35:45.474Z,29.80
2022-10-07T07:38:15.009Z,25.73
2022-10-07T07:40:42.962Z,29.50
2022-10-07T07:43:10.916Z,29.23
2022-10-07T07:45:38.988Z,29.73
2022-10-07T07:48:06.930Z,30.55
2022-10-07T07:50:34.841Z,29.15
2022-10-07T07:53:04.721Z,30.45
2022-10-07T07:55:34.063Z,28.60
2022-10-07T07:58:02.062Z,29.02
2022-10-07T08:00:30.365Z,29.42
2022-10-07T08:02:59.658Z,32.80
2022-10-07T08:05:27.658Z,29.00
2022-10-07T08:07:55.678Z,27.60
2022-10-07T08:10:23.662Z,25.10
2022-10-07T08:12:52.904Z,23.77
2022-10-07T08:15:20.822Z,26.33
2022-10-07T08:17:49.597Z,24.50
2022-10-07T08:20:17.600Z,25.65
2022-10-07T08:22:45.965Z,22.13
2022-10-07T08:25:16.799Z,25.98
2022-10-07T08:27:45.647Z,27.73
2022-10-07T08:30:15.586Z,27.45
2022-10-07T08:32:43.563Z,20.67
2022-10-07T08:35:11.526Z,21.08
2022-10-07T08:37:39.458Z,21.17
2022-10-07T08:40:08.509Z,24.23
2022-10-07T08:42:39.958Z,25.45
2022-10-07T08:45:12.484Z,23.98
2022-10-07T08:47:46.033Z,19.33
2022-10-07T08:50:19.888Z,20.02
2022-10-07T08:52:52.192Z,20.23
2022-10-07T08:55:27.149Z,23.10
2022-10-07T08:58:16.540Z,17.85
2022-10-07T09:00:51.265Z,24.45
2022-10-07T09:03:32.755Z,16.63
2022-10-07T09:06:04.922Z,29.38
2022-10-07T09:08:37.018Z,22.73
2022-10-07T09:11:16.463Z,15.60
2022-10-07T09:13:49.004Z,20.92
2022-10-07T09:16:20.646Z,20.30
2022-10-07T09:18:53.885Z,22.00
2022-10-07T09:21:25.457Z,21.88
2022-10-07T09:23:57.735Z,18.98
2022-10-07T09:26:27.576Z,20.85
2022-10-07T09:28:55.544Z,20.50
2022-10-07T09:31:25.784Z,17.70
2022-10-07T09:33:55.388Z,21.17
2022-10-07T09:36:23.423Z,17.75
2022-10-07T09:38:53.786Z,22.38
2022-10-07T09:41:31.224Z,18.70
2022-10-07T09:44:03.750Z,17.90
2022-10-07T09:46:42.155Z,15.90
2022-10-07T09:49:31.010Z,19.10
2022-10-07T09:52:01.118Z,18.58
2022-10-07T09:54:29.935Z,20.60
2022-10-07T09:56:59.783Z,21.13
2022-10-07T09:59:30.039Z,17.58
2022-10-07T10:02:00.189Z,19.33
2022-10-07T10:04:35.405Z,19.50
2022-10-07T10:07:06.533Z,18.40
2022-10-07T10:09:35.901Z,19.00
2022-10-07T10:12:15.918Z,18.58
2022-10-07T10:14:49.757Z,17.00
2022-10-07T10:17:31.708Z,20.45
2022-10-07T10:20:29.450Z,17.63
2022-10-07T10:23:00.468Z,16.42
2022-10-07T10:25:57.805Z,24.08
2022-10-07T10:28:40.510Z,20.02
2022-10-07T10:31:18.742Z,18.20
2022-10-07T10:33:55.144Z,19.30
2022-10-07T10:36:27.064Z,17.92
2022-10-07T10:39:03.614Z,20.27
2022-10-07T10:41:41.013Z,18.75
2022-10-07T10:44:42.824Z,19.20
2022-10-07T10:47:20.506Z,20.55
2022-10-07T10:50:04.192Z,20.48
2022-10-07T10:52:45.815Z,20.02
2022-10-07T10:55:26.057Z,16.27
2022-10-07T10:58:02.437Z,17.90
2022-10-07T11:00:38.007Z,24.17
2022-10-07T11:03:26.656Z,15.85
2022-10-07T11:05:56.862Z,15.80
2022-10-07T11:08:37.626Z,15.13
2022-10-07T11:11:09.077Z,15.90
2022-10-07T11:13:45.656Z,15.45
2022-10-07T11:16:17.765Z,15.63
2022-10-07T11:18:51.289Z,15.75
2022-10-07T11:21:25.977Z,17.05
2022-10-07T11:24:02.403Z,15.40
2022-10-07T11:26:36.041Z,16.35
2022-10-07T11:29:16.389Z,16.83
2022-10-07T11:31:51.580Z,14.30
2022-10-07T11:34:22.791Z,14.75
2022-10-07T11:37:02.857Z,16.30
2022-10-07T11:39:32.290Z,14.73
2022-10-07T11:42:04.937Z,15.90
2022-10-07T11:47:07.114Z,15.75
2022-10-07T11:49:40.264Z,16.13
2022-10-07T11:52:11.798Z,15.52
2022-10-07T11:54:53.996Z,15.75
2022-10-07T11:57:23.506Z,17.27
2022-10-07T11:59:58.107Z,15.27
2022-10-07T12:02:49.638Z,14.10
2022-10-07T12:06:05.961Z,16.05
2022-10-07T12:08:36.509Z,14.98
2022-10-07T12:11:47.133Z,18.75
2022-10-07T12:14:44.456Z,17.42
2022-10-07T12:17:21.541Z,15.38
2022-10-07T12:20:30.475Z,15.40
2022-10-07T12:23:39.480Z,16.50
2022-10-07T12:26:53.744Z,18.17
2022-10-07T12:29:31.803Z,17.48
2022-10-07T12:32:02.118Z,16.00
2022-10-07T12:34:40.275Z,15.98
2022-10-07T12:37:37.546Z,20.83
2022-10-07T12:40:17.122Z,16.88
2022-10-07T12:42:52.851Z,18.40
2022-10-07T12:45:23.448Z,15.63
2022-10-07T12:47:56.981Z,15.77
2022-10-07T12:50:26.501Z,17.17
2022-10-07T12:52:58.826Z,16.75
2022-10-07T12:55:32.795Z,19.88
2022-10-07T12:58:15.819Z,19.38
2022-10-07T13:00:54.670Z,19.67
2022-10-07T13:04:00.763Z,21.30
2022-10-07T13:07:06.205Z,20.05
2022-10-07T13:10:08.065Z,18.27
2022-10-07T13:12:47.873Z,19.35
2022-10-07T13:15:27.894Z,16.60
2022-10-07T13:18:02.111Z,18.13
2022-10-07T13:20:41.598Z,15.40
2022-10-07T13:23:15.976Z,14.00
2022-10-07T13:25:50.357Z,17.08
2022-10-07T13:28:22.297Z,13.00
2022-10-07T13:30:52.031Z,15.98
2022-10-07T13:33:26.453Z,18.65
2022-10-07T13:36:08.474Z,19.63
2022-10-07T13:38:37.036Z,17.73
2022-10-07T13:41:09.165Z,16.73
2022-10-07T13:43:38.581Z,20.05
2022-10-07T13:46:10.053Z,19.27
2022-10-07T13:48:45.385Z,17.75
2022-10-07T13:51:27.989Z,20.75
2022-10-07T13:53:58.824Z,16.97
2022-10-07T13:56:30.915Z,20.80
2022-10-07T13:58:59.578Z,15.35
2022-10-07T14:01:30.339Z,18.45
2022-10-07T14:04:21.969Z,15.25
2022-10-07T14:06:55.890Z,16.55
2022-10-07T14:09:34.426Z,15.60
2022-10-07T14:12:05.716Z,17.05
2022-10-07T14:14:37.184Z,20.13
2022-10-07T14:17:12.124Z,18.15
2022-10-07T14:19:40.493Z,17.08
2022-10-07T14:22:19.818Z,16.13
2022-10-07T14:24:56.129Z,15.45
2022-10-07T14:27:54.555Z,14.15
2022-10-07T14:30:28.077Z,13.70
2022-10-07T14:33:20.128Z,14.43
2022-10-07T14:35:48.615Z,12.27
2022-10-07T14:38:29.419Z,15.00
2022-10-07T14:40:57.665Z,17.75
2022-10-07T14:43:25.996Z,12.73
2022-10-07T14:45:54.113Z,14.57
2022-10-07T14:48:22.167Z,30.80
2022-10-07T14:50:51.867Z,15.75
2022-10-07T14:53:19.879Z,17.45
2022-10-07T14:55:49.437Z,13.65
2022-10-07T14:58:17.522Z,14.27
2022-10-07T15:00:45.568Z,18.60
2022-10-07T15:03:13.702Z,16.67
2022-10-07T15:05:41.692Z,22.45
2022-10-07T15:08:11.793Z,15.68
2022-10-07T15:10:41.195Z,14.77
2022-10-07T15:13:13.425Z,24.75
2022-10-07T15:15:42.912Z,17.20
2022-10-07T15:18:11.760Z,26.60
2022-10-07T15:20:40.484Z,21.27
2022-10-07T15:23:09.101Z,22.02
2022-10-07T15:25:42.567Z,14.93
2022-10-07T15:28:11.947Z,18.80
2022-10-07T15:30:39.971Z,18.70
2022-10-07T15:33:08.592Z,13.57
2022-10-07T15:35:36.789Z,16.13
2022-10-07T15:38:04.698Z,16.23
2022-10-07T15:40:32.682Z,15.50
2022-10-07T15:43:00.964Z,16.50
2022-10-07T15:45:30.306Z,15.95
2022-10-07T15:48:00.660Z,34.67
2022-10-07T15:50:28.817Z,15.90
2022-10-07T15:52:57.023Z,16.27
2022-10-07T15:55:25.405Z,17.88
2022-10-07T15:57:53.600Z,14.35
2022-10-07T16:00:22.026Z,16.67
2022-10-07T16:02:51.784Z,17.75
2022-10-07T16:05:19.808Z,18.20
2022-10-07T16:07:47.794Z,15.73
2022-10-07T16:10:15.917Z,17.00
2022-10-07T16:12:44.138Z,15.10
2022-10-07T16:15:12.393Z,18.92
2022-10-07T16:17:40.283Z,20.45
2022-10-07T16:20:11.621Z,17.85
2022-10-07T16:22:39.762Z,17.13
2022-10-07T16:25:08.311Z,15.43
2022-10-07T16:27:50.134Z,19.30
2022-10-07T16:30:35.970Z,18.13
2022-10-07T16:33:03.897Z,23.77
2022-10-07T16:35:33.429Z,30.48
2022-10-07T16:38:02.292Z,28.30
2022-10-07T16:40:30.205Z,27.17
2022-10-07T16:42:59.580Z,17.52
2022-10-07T16:45:27.823Z,17.67
2022-10-07T16:47:56.346Z,17.98
2022-10-07T16:50:24.273Z,23.70
2022-10-07T16:52:53.851Z,18.13
2022-10-07T16:55:21.866Z,26.42
2022-10-07T16:57:49.850Z,42.78
2022-10-07T17:00:18.135Z,26.10
2022-10-07T17:02:46.201Z,28.65
2022-10-07T17:05:14.273Z,22.70
2022-10-07T17:07:42.404Z,23.30
2022-10-07T17:10:12.070Z,18.80
2022-10-07T17:12:39.931Z,19.58
2022-10-07T17:15:09.287Z,22.08
2022-10-07T17:17:37.224Z,26.90
2022-10-07T17:20:05.704Z,37.50
2022-10-07T17:22:34.782Z,25.92
2022-10-07T17:25:03.981Z,27.52
2022-10-07T17:27:33.321Z,24.63
2022-10-07T17:30:01.265Z,23.10
2022-10-07T17:32:29.539Z,24.08
2022-10-07T17:34:57.459Z,22.80
2022-10-07T17:37:26.700Z,21.27
2022-10-07T17:39:54.733Z,29.90
2022-10-07T17:42:22.658Z,43.53
2022-10-07T17:44:51.978Z,37.85
2022-10-07T17:47:19.985Z,20.67
2022-10-07T17:49:47.879Z,24.23
2022-10-07T17:52:15.837Z,39.65
2022-10-07T17:54:43.925Z,23.05
2022-10-07T17:57:12.011Z,23.88
2022-10-07T17:59:40.192Z,20.38
2022-10-07T18:02:10.419Z,20.15
2022-10-07T18:04:38.521Z,18.73
2022-10-07T18:07:06.590Z,21.55
2022-10-07T18:09:34.501Z,19.45
2022-10-07T18:12:19.856Z,19.42
2022-10-07T18:15:05.112Z,20.20
2022-10-07T18:17:36.034Z,20.58
2022-10-07T18:20:06.346Z,19.45
2022-10-07T18:22:34.691Z,18.63
2022-10-07T18:25:02.923Z,19.75
2022-10-07T18:27:31.091Z,20.90
2022-10-07T18:30:00.331Z,21.92
2022-10-07T18:32:28.404Z,24.35
2022-10-07T18:34:57.840Z,17.00
2022-10-07T18:37:25.809Z,19.90
2022-10-07T18:39:53.774Z,21.48
2022-10-07T18:42:21.669Z,20.13
2022-10-07T18:44:50.684Z,21.50
2022-10-07T18:47:18.648Z,21.33
2022-10-07T18:50:07.694Z,20.58
2022-10-07T18:52:36.917Z,24.40
2022-10-07T18:55:05.362Z,24.67
2022-10-07T18:57:33.373Z,25.85
2022-10-07T19:00:01.225Z,24.98
2022-10-07T19:02:29.107Z,25.60
2022-10-07T19:04:57.241Z,23.10
2022-10-07T19:07:28.769Z,27.95
2022-10-07T19:09:56.642Z,32.35
2022-10-07T19:12:41.953Z,29.17
2022-10-07T19:15:10.662Z,27.08
2022-10-07T19:17:38.599Z,26.40
2022-10-07T19:20:07.148Z,26.45
2022-10-07T19:22:36.414Z,29.55
2022-10-07T19:25:24.448Z,24.20
2022-10-07T19:27:52.314Z,25.40
2022-10-07T19:30:20.245Z,27.95
2022-10-07T19:32:48.130Z,27.67
2022-10-07T19:35:16.041Z,28.02
2022-10-07T19:37:45.632Z,26.42
2022-10-07T19:40:13.780Z,26.98
2022-10-07T19:42:41.855Z,33.70
2022-10-07T19:45:11.235Z,29.55
2022-10-07T19:47:39.226Z,30.67
2022-10-07T19:50:07.938Z,30.05
2022-10-07T19:52:36.014Z,34.30
2022-10-07T19:55:05.754Z,41.22
2022-10-07T19:57:33.678Z,40.60
2022-10-07T20:00:01.593Z,45.90
2022-10-07T20:02:29.519Z,49.40
2022-10-07T20:04:58.298Z,63.20
2022-10-07T20:07:26.579Z,39.97
2022-10-07T20:09:54.590Z,29.23
2022-10-07T20:12:23.864Z,78.15
2022-10-07T20:14:51.985Z,136.05
2022-10-07T20:17:20.035Z,85.85
2022-10-07T20:19:47.945Z,54.60
2022-10-07T20:22:16.578Z,44.95
2022-10-07T20:24:44.549Z,36.65
2022-10-07T20:27:12.588Z,99.75
2022-10-07T20:29:55.842Z,30.90
2022-10-07T20:32:24.243Z,40.42
2022-10-07T20:34:52.636Z,49.05
2022-10-07T20:37:21.078Z,57.08
2022-10-07T20:40:06.287Z,62.38
2022-10-07T20:42:34.960Z,44.75
2022-10-07T20:45:04.449Z,38.90
2022-10-07T20:47:35.151Z,93.18
2022-10-07T20:50:03.790Z,85.60
2022-10-07T20:52:33.414Z,56.60
2022-10-07T20:55:01.600Z,43.05
2022-10-07T20:57:33.722Z,49.92
2022-10-07T21:00:01.845Z,30.88
2022-10-07T21:02:31.316Z,41.75
2022-10-07T21:04:59.754Z,35.28
2022-10-07T21:07:27.702Z,60.22
2022-10-07T21:09:58.099Z,31.98
2022-10-07T21:12:26.011Z,25.52
2022-10-07T21:14:55.070Z,102.03
2022-10-07T21:17:24.856Z,49.90
2022-10-07T21:19:55.846Z,23.70
2022-10-07T21:22:25.443Z,63.75
2022-10-07T21:24:53.469Z,28.08
2022-10-07T21:27:21.414Z,27.50
2022-10-07T21:29:49.354Z,18.23
2022-10-07T21:32:18.635Z,18.77
2022-10-07T21:34:46.691Z,21.45
2022-10-07T21:37:16.032Z,22.02
2022-10-07T21:39:43.974Z,19.60
2022-10-07T21:42:11.827Z,25.85
2022-10-07T21:44:40.150Z,19.40
2022-10-07T21:47:28.498Z,22.70
2022-10-07T21:50:16.934Z,17.50
2022-10-07T21:52:46.441Z,24.95
2022-10-07T21:55:14.724Z,16.48
2022-10-07T21:57:42.954Z,15.55
2022-10-07T22:00:12.610Z,16.85
2022-10-07T22:02:40.638Z,16.88
2022-10-07T22:05:11.329Z,16.33
2022-10-07T22:07:56.672Z,15.90
2022-10-07T22:10:26.181Z,15.48
2022-10-07T22:12:54.075Z,15.93
2022-10-07T22:15:23.716Z,18.38
2022-10-07T22:17:51.658Z,15.88
2022-10-07T22:20:19.583Z,16.02
2022-10-07T22:22:48.866Z,16.50
2022-10-07T22:25:17.100Z,15.00
2022-10-07T22:27:48.755Z,15.68
2022-10-07T22:30:17.390Z,15.75
2022-10-07T22:32:45.698Z,15.52
2022-10-07T22:35:30.136Z,14.38
2022-10-07T22:37:58.669Z,13.95
2022-10-07T22:40:27.029Z,14.82
2022-10-07T22:42:56.411Z,17.63
2022-10-07T22:45:24.365Z,14.35
2022-10-07T22:47:52.344Z,12.82
2022-10-07T22:50:20.439Z,16.08
2022-10-07T22:52:49.181Z,14.38
2022-10-07T22:55:18.083Z,13.02
2022-10-07T22:57:46.127Z,14.13
2022-10-07T23:00:16.851Z,15.77
2022-10-07T23:02:45.678Z,15.25
2022-10-07T23:05:14.143Z,14.23
2022-10-07T23:07:42.217Z,13.23
2022-10-07T23:10:11.099Z,13.02
2022-10-07T23:12:39.167Z,12.85
2022-10-07T23:15:08.172Z,15.70
2022-10-07T23:17:37.683Z,11.82
2022-10-07T23:20:06.559Z,12.10
2022-10-07T23:22:35.437Z,13.70
2022-10-07T23:25:04.403Z,13.75
2022-10-07T23:27:32.470Z,12.43
2022-10-07T23:30:00.558Z,14.73
2022-10-07T23:32:28.605Z,12.70
2022-10-07T23:34:58.076Z,12.35
2022-10-07T23:37:26.310Z,11.77
2022-10-07T23:39:54.361Z,11.60
2022-10-07T23:42:23.417Z,12.60
2022-10-07T23:44:51.536Z,16.70
2022-10-07T23:47:22.493Z,13.18
2022-10-07T23:49:50.578Z,12.93
2022-10-07T23:52:20.119Z,15.48
2022-10-07T23:54:48.227Z,11.52
2022-10-07T23:57:16.398Z,13.15
2022-10-07T23:59:44.486Z,11.18
